sensor_id;sensor_type;location;lat;lon;timestamp;temperature;humidity
36548;DHT22;22551;52.206;4.856;2023-05-13T00:04:41;15.40;99.90
36548;DHT22;22551;52.206;4.856;2023-05-13T00:09:44;15.40;99.90
36548;DHT22;22551;52.206;4.856;2023-05-13T00:14:47;15.30;99.90
36548;DHT22;22551;52.206;4.856;2023-05-13T00:19:50;15.10;99.90
36548;DHT22;22551;52.206;4.856;2023-05-13T00:24:52;15.00;99.90
36548;DHT22;22551;52.206;4.856;2023-05-13T00:29:55;14.80;99.90
36548;DHT22;22551;52.206;4.856;2023-05-13T00:34:59;14.60;99.90
36548;DHT22;22551;52.206;4.856;2023-05-13T00:40:01;14.50;99.90
36548;DHT22;22551;52.206;4.856;2023-05-13T00:45:06;14.40;99.90
36548;DHT22;22551;52.206;4.856;2023-05-13T00:50:10;14.20;99.90
36548;DHT22;22551;52.206;4.856;2023-05-13T00:55:12;14.10;99.90
36548;DHT22;22551;52.206;4.856;2023-05-13T01:00:17;14.00;99.90
36548;DHT22;22551;52.206;4.856;2023-05-13T01:05:30;13.90;99.90
36548;DHT22;22551;52.206;4.856;2023-05-13T01:10:41;13.80;99.90
36548;DHT22;22551;52.206;4.856;2023-05-13T01:15:52;13.70;99.90
36548;DHT22;22551;52.206;4.856;2023-05-13T01:20:57;13.60;99.90
36548;DHT22;22551;52.206;4.856;2023-05-13T01:26:03;13.50;99.90
36548;DHT22;22551;52.206;4.856;2023-05-13T01:31:06;13.50;99.90
36548;DHT22;22551;52.206;4.856;2023-05-13T01:36:10;13.40;99.90
36548;DHT22;22551;52.206;4.856;2023-05-13T01:41:15;13.40;99.90
36548;DHT22;22551;52.206;4.856;2023-05-13T01:46:17;13.30;99.90
36548;DHT22;22551;52.206;4.856;2023-05-13T01:51:19;13.20;99.90
36548;DHT22;22551;52.206;4.856;2023-05-13T01:56:26;13.10;99.90
36548;DHT22;22551;52.206;4.856;2023-05-13T02:01:28;12.90;99.90
36548;DHT22;22551;52.206;4.856;2023-05-13T02:06:31;12.80;99.90
36548;DHT22;22551;52.206;4.856;2023-05-13T02:11:34;12.80;99.90
36548;DHT22;22551;52.206;4.856;2023-05-13T02:16:37;12.70;99.90
36548;DHT22;22551;52.206;4.856;2023-05-13T02:21:39;12.60;99.90
36548;DHT22;22551;52.206;4.856;2023-05-13T02:26:44;12.60;99.90
36548;DHT22;22551;52.206;4.856;2023-05-13T02:31:46;12.50;99.90
36548;DHT22;22551;52.206;4.856;2023-05-13T02:36:48;12.40;99.90
36548;DHT22;22551;52.206;4.856;2023-05-13T02:41:53;12.30;99.90
36548;DHT22;22551;52.206;4.856;2023-05-13T02:46:55;12.20;99.90
36548;DHT22;22551;52.206;4.856;2023-05-13T02:51:57;12.10;99.90
36548;DHT22;22551;52.206;4.856;2023-05-13T02:57:01;11.90;99.90
36548;DHT22;22551;52.206;4.856;2023-05-13T03:02:03;11.80;99.90
36548;DHT22;22551;52.206;4.856;2023-05-13T03:07:06;11.90;99.90
36548;DHT22;22551;52.206;4.856;2023-05-13T03:12:10;11.90;99.90
36548;DHT22;22551;52.206;4.856;2023-05-13T03:17:12;11.90;99.90
36548;DHT22;22551;52.206;4.856;2023-05-13T03:22:14;12.10;99.90
36548;DHT22;22551;52.206;4.856;2023-05-13T03:27:17;12.20;99.90
36548;DHT22;22551;52.206;4.856;2023-05-13T03:32:20;12.10;99.90
36548;DHT22;22551;52.206;4.856;2023-05-13T03:37:24;12.10;99.90
36548;DHT22;22551;52.206;4.856;2023-05-13T03:42:28;12.10;99.90
36548;DHT22;22551;52.206;4.856;2023-05-13T03:47:30;12.10;99.90
36548;DHT22;22551;52.206;4.856;2023-05-13T03:52:32;12.00;99.90
36548;DHT22;22551;52.206;4.856;2023-05-13T03:57:36;12.10;99.90
36548;DHT22;22551;52.206;4.856;2023-05-13T04:02:41;12.00;99.90
36548;DHT22;22551;52.206;4.856;2023-05-13T04:07:43;12.00;99.90
36548;DHT22;22551;52.206;4.856;2023-05-13T04:12:47;12.00;99.90
36548;DHT22;22551;52.206;4.856;2023-05-13T04:17:51;12.00;99.90
36548;DHT22;22551;52.206;4.856;2023-05-13T04:22:54;12.00;99.90
36548;DHT22;22551;52.206;4.856;2023-05-13T04:27:57;12.00;99.90
36548;DHT22;22551;52.206;4.856;2023-05-13T04:33:00;11.90;99.90
36548;DHT22;22551;52.206;4.856;2023-05-13T04:38:03;11.90;99.90
36548;DHT22;22551;52.206;4.856;2023-05-13T04:43:07;11.80;99.90
36548;DHT22;22551;52.206;4.856;2023-05-13T04:48:09;11.80;99.90
36548;DHT22;22551;52.206;4.856;2023-05-13T04:53:11;11.80;99.90
36548;DHT22;22551;52.206;4.856;2023-05-13T04:58:15;11.80;99.90
36548;DHT22;22551;52.206;4.856;2023-05-13T05:03:17;12.00;99.90
36548;DHT22;22551;52.206;4.856;2023-05-13T05:08:20;12.10;99.90
36548;DHT22;22551;52.206;4.856;2023-05-13T05:13:24;12.20;99.90
36548;DHT22;22551;52.206;4.856;2023-05-13T05:18:26;12.30;99.90
36548;DHT22;22551;52.206;4.856;2023-05-13T05:23:28;12.40;99.90
36548;DHT22;22551;52.206;4.856;2023-05-13T05:28:32;12.50;99.90
36548;DHT22;22551;52.206;4.856;2023-05-13T05:33:34;12.50;99.90
36548;DHT22;22551;52.206;4.856;2023-05-13T05:38:36;12.60;99.90
36548;DHT22;22551;52.206;4.856;2023-05-13T05:43:40;12.90;99.90
36548;DHT22;22551;52.206;4.856;2023-05-13T05:48:42;13.10;99.90
36548;DHT22;22551;52.206;4.856;2023-05-13T05:53:44;13.20;99.90
36548;DHT22;22551;52.206;4.856;2023-05-13T05:58:48;13.40;99.90
36548;DHT22;22551;52.206;4.856;2023-05-13T06:03:50;13.50;99.90
36548;DHT22;22551;52.206;4.856;2023-05-13T06:08:52;13.60;99.90
36548;DHT22;22551;52.206;4.856;2023-05-13T06:13:56;13.80;99.90
36548;DHT22;22551;52.206;4.856;2023-05-13T06:18:58;14.00;99.90
36548;DHT22;22551;52.206;4.856;2023-05-13T06:24:00;14.20;99.90
36548;DHT22;22551;52.206;4.856;2023-05-13T06:29:05;14.30;99.90
36548;DHT22;22551;52.206;4.856;2023-05-13T06:34:07;14.60;99.90
36548;DHT22;22551;52.206;4.856;2023-05-13T06:39:15;14.60;99.90
36548;DHT22;22551;52.206;4.856;2023-05-13T06:44:19;14.60;99.90
36548;DHT22;22551;52.206;4.856;2023-05-13T06:49:21;14.80;99.90
36548;DHT22;22551;52.206;4.856;2023-05-13T06:54:25;14.90;99.90
36548;DHT22;22551;52.206;4.856;2023-05-13T06:59:28;15.10;99.90
36548;DHT22;22551;52.206;4.856;2023-05-13T07:04:31;15.20;99.90
36548;DHT22;22551;52.206;4.856;2023-05-13T07:09:33;15.40;99.90
36548;DHT22;22551;52.206;4.856;2023-05-13T07:14:36;15.60;99.90
36548;DHT22;22551;52.206;4.856;2023-05-13T07:19:38;15.80;99.90
36548;DHT22;22551;52.206;4.856;2023-05-13T07:24:41;16.00;99.90
36548;DHT22;22551;52.206;4.856;2023-05-13T07:29:45;16.30;99.90
36548;DHT22;22551;52.206;4.856;2023-05-13T07:34:47;16.80;99.90
36548;DHT22;22551;52.206;4.856;2023-05-13T07:39:49;16.80;99.90
36548;DHT22;22551;52.206;4.856;2023-05-13T07:44:54;16.80;99.90
36548;DHT22;22551;52.206;4.856;2023-05-13T07:49:58;16.90;99.90
36548;DHT22;22551;52.206;4.856;2023-05-13T07:55:01;16.90;99.90
36548;DHT22;22551;52.206;4.856;2023-05-13T13:00:32;21.80;99.90
36548;DHT22;22551;52.206;4.856;2023-05-13T13:05:34;22.50;99.90
36548;DHT22;22551;52.206;4.856;2023-05-13T13:10:36;22.10;99.90
36548;DHT22;22551;52.206;4.856;2023-05-13T13:15:40;22.50;99.90
36548;DHT22;22551;52.206;4.856;2023-05-13T13:20:42;22.20;99.90
36548;DHT22;22551;52.206;4.856;2023-05-13T13:25:44;22.40;99.90
36548;DHT22;22551;52.206;4.856;2023-05-13T13:30:48;22.50;99.90
36548;DHT22;22551;52.206;4.856;2023-05-13T13:35:51;22.20;99.90
36548;DHT22;22551;52.206;4.856;2023-05-13T13:40:53;22.70;99.90
36548;DHT22;22551;52.206;4.856;2023-05-13T13:45:56;22.70;99.90
36548;DHT22;22551;52.206;4.856;2023-05-13T13:50:58;22.80;99.90
36548;DHT22;22551;52.206;4.856;2023-05-13T13:56:01;22.40;99.90
36548;DHT22;22551;52.206;4.856;2023-05-13T14:01:04;22.70;99.90
36548;DHT22;22551;52.206;4.856;2023-05-13T14:06:07;22.80;99.90
36548;DHT22;22551;52.206;4.856;2023-05-13T14:11:09;22.60;99.90
36548;DHT22;22551;52.206;4.856;2023-05-13T14:16:12;22.60;99.90
36548;DHT22;22551;52.206;4.856;2023-05-13T14:21:15;22.60;99.90
36548;DHT22;22551;52.206;4.856;2023-05-13T14:26:17;23.10;99.90
36548;DHT22;22551;52.206;4.856;2023-05-13T14:31:22;23.30;99.90
36548;DHT22;22551;52.206;4.856;2023-05-13T14:36:24;22.90;99.90
36548;DHT22;22551;52.206;4.856;2023-05-13T14:41:27;22.80;99.90
36548;DHT22;22551;52.206;4.856;2023-05-13T14:46:30;22.70;99.90
36548;DHT22;22551;52.206;4.856;2023-05-13T14:51:35;22.70;99.90
36548;DHT22;22551;52.206;4.856;2023-05-13T14:56:37;22.70;99.90
36548;DHT22;22551;52.206;4.856;2023-05-13T15:01:42;22.30;99.90
36548;DHT22;22551;52.206;4.856;2023-05-13T15:06:44;22.50;99.90
36548;DHT22;22551;52.206;4.856;2023-05-13T15:11:46;22.70;99.90
36548;DHT22;22551;52.206;4.856;2023-05-13T15:16:50;22.40;99.90
36548;DHT22;22551;52.206;4.856;2023-05-13T15:21:52;22.00;99.90
36548;DHT22;22551;52.206;4.856;2023-05-13T15:26:55;22.40;99.90
36548;DHT22;22551;52.206;4.856;2023-05-13T15:31:58;22.50;99.90
36548;DHT22;22551;52.206;4.856;2023-05-13T15:37:00;22.50;99.90
36548;DHT22;22551;52.206;4.856;2023-05-13T15:42:03;22.40;99.90
36548;DHT22;22551;52.206;4.856;2023-05-13T15:47:07;22.40;99.90
36548;DHT22;22551;52.206;4.856;2023-05-13T15:52:09;22.40;99.90
36548;DHT22;22551;52.206;4.856;2023-05-13T15:57:11;22.40;99.90
36548;DHT22;22551;52.206;4.856;2023-05-13T16:02:15;22.40;99.90
36548;DHT22;22551;52.206;4.856;2023-05-13T16:07:19;22.20;99.90
36548;DHT22;22551;52.206;4.856;2023-05-13T16:12:21;22.20;99.90
36548;DHT22;22551;52.206;4.856;2023-05-13T16:17:27;22.20;99.90
36548;DHT22;22551;52.206;4.856;2023-05-13T16:22:31;22.00;99.90
36548;DHT22;22551;52.206;4.856;2023-05-13T16:27:37;21.70;99.90
36548;DHT22;22551;52.206;4.856;2023-05-13T16:32:44;21.80;99.90
36548;DHT22;22551;52.206;4.856;2023-05-13T16:37:52;21.80;99.90
36548;DHT22;22551;52.206;4.856;2023-05-13T16:42:54;21.70;99.90
36548;DHT22;22551;52.206;4.856;2023-05-13T16:47:58;21.30;99.90
36548;DHT22;22551;52.206;4.856;2023-05-13T16:53:00;21.20;99.90
36548;DHT22;22551;52.206;4.856;2023-05-13T16:58:03;21.40;99.90
36548;DHT22;22551;52.206;4.856;2023-05-13T17:03:06;21.30;99.90
36548;DHT22;22551;52.206;4.856;2023-05-13T17:08:08;21.00;99.90
36548;DHT22;22551;52.206;4.856;2023-05-13T17:13:11;21.00;99.90
36548;DHT22;22551;52.206;4.856;2023-05-13T17:18:14;21.00;99.90
36548;DHT22;22551;52.206;4.856;2023-05-13T17:23:17;20.70;99.90
36548;DHT22;22551;52.206;4.856;2023-05-13T17:28:19;20.60;99.90
36548;DHT22;22551;52.206;4.856;2023-05-13T17:33:23;20.40;99.90
36548;DHT22;22551;52.206;4.856;2023-05-13T17:38:26;20.20;99.90
36548;DHT22;22551;52.206;4.856;2023-05-13T17:43:28;19.90;99.90
36548;DHT22;22551;52.206;4.856;2023-05-13T17:48:31;19.70;99.90
36548;DHT22;22551;52.206;4.856;2023-05-13T17:53:35;19.50;99.90
36548;DHT22;22551;52.206;4.856;2023-05-13T17:58:37;19.50;99.90
36548;DHT22;22551;52.206;4.856;2023-05-13T18:03:41;19.40;99.90
36548;DHT22;22551;52.206;4.856;2023-05-13T18:08:43;19.10;99.90
36548;DHT22;22551;52.206;4.856;2023-05-13T18:13:46;18.70;99.90
36548;DHT22;22551;52.206;4.856;2023-05-13T18:18:49;18.50;99.90
36548;DHT22;22551;52.206;4.856;2023-05-13T18:23:51;18.20;99.90
36548;DHT22;22551;52.206;4.856;2023-05-13T18:28:54;18.00;99.90
36548;DHT22;22551;52.206;4.856;2023-05-13T18:33:58;17.80;99.90
36548;DHT22;22551;52.206;4.856;2023-05-13T18:39:00;17.70;99.90
36548;DHT22;22551;52.206;4.856;2023-05-13T18:44:02;17.60;99.90
36548;DHT22;22551;52.206;4.856;2023-05-13T18:49:06;17.40;99.90
36548;DHT22;22551;52.206;4.856;2023-05-13T18:54:08;17.20;99.90
36548;DHT22;22551;52.206;4.856;2023-05-13T18:59:11;17.10;99.90
36548;DHT22;22551;52.206;4.856;2023-05-13T19:04:16;16.90;99.90
36548;DHT22;22551;52.206;4.856;2023-05-13T19:09:18;16.30;99.90
36548;DHT22;22551;52.206;4.856;2023-05-13T19:14:22;16.30;99.90
36548;DHT22;22551;52.206;4.856;2023-05-13T19:19:26;16.10;99.90
36548;DHT22;22551;52.206;4.856;2023-05-13T19:24:28;16.20;99.90
36548;DHT22;22551;52.206;4.856;2023-05-13T19:29:30;16.00;99.90
36548;DHT22;22551;52.206;4.856;2023-05-13T19:34:34;15.90;99.90
36548;DHT22;22551;52.206;4.856;2023-05-13T19:39:37;15.80;99.90
36548;DHT22;22551;52.206;4.856;2023-05-13T19:44:39;15.60;99.90
36548;DHT22;22551;52.206;4.856;2023-05-13T19:49:43;15.50;99.90
36548;DHT22;22551;52.206;4.856;2023-05-13T19:54:45;15.40;99.90
36548;DHT22;22551;52.206;4.856;2023-05-13T19:59:47;15.30;99.90
36548;DHT22;22551;52.206;4.856;2023-05-13T20:04:52;15.20;99.90
36548;DHT22;22551;52.206;4.856;2023-05-13T20:09:54;15.10;99.90
36548;DHT22;22551;52.206;4.856;2023-05-13T20:14:57;15.00;99.90
36548;DHT22;22551;52.206;4.856;2023-05-13T20:20:03;15.00;99.90
36548;DHT22;22551;52.206;4.856;2023-05-13T20:25:06;14.80;99.90
36548;DHT22;22551;52.206;4.856;2023-05-13T20:30:10;14.60;99.90
36548;DHT22;22551;52.206;4.856;2023-05-13T20:35:14;14.60;99.90
36548;DHT22;22551;52.206;4.856;2023-05-13T20:40:18;14.50;99.90
36548;DHT22;22551;52.206;4.856;2023-05-13T20:45:21;14.20;99.90
36548;DHT22;22551;52.206;4.856;2023-05-13T20:50:27;14.00;99.90
36548;DHT22;22551;52.206;4.856;2023-05-13T20:55:30;14.10;99.90
36548;DHT22;22551;52.206;4.856;2023-05-13T21:00:35;13.90;99.90
36548;DHT22;22551;52.206;4.856;2023-05-13T21:05:40;13.80;99.90
36548;DHT22;22551;52.206;4.856;2023-05-13T21:10:42;13.80;99.90
36548;DHT22;22551;52.206;4.856;2023-05-13T21:15:44;13.80;99.90
36548;DHT22;22551;52.206;4.856;2023-05-13T21:20:48;13.60;99.90
36548;DHT22;22551;52.206;4.856;2023-05-13T21:25:53;13.60;99.90
36548;DHT22;22551;52.206;4.856;2023-05-13T21:30:55;13.50;99.90
36548;DHT22;22551;52.206;4.856;2023-05-13T21:35:59;13.50;99.90
36548;DHT22;22551;52.206;4.856;2023-05-13T21:41:04;13.50;99.90
36548;DHT22;22551;52.206;4.856;2023-05-13T21:46:06;13.50;99.90
36548;DHT22;22551;52.206;4.856;2023-05-13T21:51:10;13.40;99.90
36548;DHT22;22551;52.206;4.856;2023-05-13T21:56:12;13.40;99.90
36548;DHT22;22551;52.206;4.856;2023-05-13T22:01:14;13.20;99.90
36548;DHT22;22551;52.206;4.856;2023-05-13T22:06:18;13.10;99.90
36548;DHT22;22551;52.206;4.856;2023-05-13T22:11:22;13.10;99.90
36548;DHT22;22551;52.206;4.856;2023-05-13T22:16:24;13.00;99.90
36548;DHT22;22551;52.206;4.856;2023-05-13T22:21:28;13.00;99.90
36548;DHT22;22551;52.206;4.856;2023-05-13T22:26:31;12.90;99.90
36548;DHT22;22551;52.206;4.856;2023-05-13T22:31:34;12.90;99.90
36548;DHT22;22551;52.206;4.856;2023-05-13T22:36:37;12.90;99.90
36548;DHT22;22551;52.206;4.856;2023-05-13T22:41:40;12.90;99.90
36548;DHT22;22551;52.206;4.856;2023-05-13T22:46:43;12.90;99.90
36548;DHT22;22551;52.206;4.856;2023-05-13T22:51:47;12.80;99.90
36548;DHT22;22551;52.206;4.856;2023-05-13T22:56:52;12.80;99.90
36548;DHT22;22551;52.206;4.856;2023-05-13T23:01:54;12.80;99.90
36548;DHT22;22551;52.206;4.856;2023-05-13T23:06:59;12.70;99.90
36548;DHT22;22551;52.206;4.856;2023-05-13T23:12:01;12.60;99.90
36548;DHT22;22551;52.206;4.856;2023-05-13T23:17:04;12.60;99.90
36548;DHT22;22551;52.206;4.856;2023-05-13T23:22:08;12.60;99.90
36548;DHT22;22551;52.206;4.856;2023-05-13T23:27:11;12.50;99.90
36548;DHT22;22551;52.206;4.856;2023-05-13T23:32:14;12.50;99.90
36548;DHT22;22551;52.206;4.856;2023-05-13T23:37:18;12.40;99.90
36548;DHT22;22551;52.206;4.856;2023-05-13T23:42:21;12.40;99.90
36548;DHT22;22551;52.206;4.856;2023-05-13T23:47:23;12.40;99.90
36548;DHT22;22551;52.206;4.856;2023-05-13T23:52:27;12.30;99.90
36548;DHT22;22551;52.206;4.856;2023-05-13T23:57:29;12.30;99.90
